createdAt,value
2022-10-27T00:00:48.669Z,5.40
2022-10-27T00:03:19.835Z,7.17
2022-10-27T00:05:48.145Z,6.87
2022-10-27T00:08:16.948Z,8.97
2022-10-27T00:10:45.131Z,7.97
2022-10-27T00:13:13.789Z,7.50
2022-10-27T00:15:41.409Z,7.50
2022-10-27T00:18:12.017Z,6.63
2022-10-27T00:20:41.795Z,6.33
2022-10-27T00:23:10.844Z,7.23
2022-10-27T00:25:37.847Z,7.57
2022-10-27T00:28:04.703Z,8.70
2022-10-27T00:30:31.377Z,7.40
2022-10-27T00:32:58.091Z,8.83
2022-10-27T00:35:24.818Z,10.33
2022-10-27T00:37:51.929Z,5.33
2022-10-27T00:40:18.902Z,7.93
2022-10-27T00:42:45.631Z,7.87
2022-10-27T00:45:12.411Z,7.10
2022-10-27T00:47:39.779Z,5.83
2022-10-27T00:50:13.492Z,8.27
2022-10-27T00:52:40.738Z,7.07
2022-10-27T00:55:21.644Z,8.77
2022-10-27T00:57:51.963Z,11.30
2022-10-27T01:00:19.421Z,10.17
2022-10-27T01:02:47.108Z,5.83
2022-10-27T01:05:16.840Z,8.60
2022-10-27T01:07:44.780Z,8.60
2022-10-27T01:10:13.303Z,8.90
2022-10-27T01:12:40.555Z,8.57
2022-10-27T01:15:08.246Z,7.07
2022-10-27T01:17:53.397Z,9.10
2022-10-27T01:20:34.878Z,7.43
2022-10-27T01:23:37.470Z,9.67
2022-10-27T01:26:27.311Z,8.30
2022-10-27T01:29:21.758Z,10.40
2022-10-27T01:32:01.856Z,6.43
2022-10-27T01:34:57.660Z,12.07
2022-10-27T01:37:37.526Z,8.53
2022-10-27T01:40:23.701Z,6.80
2022-10-27T01:42:53.473Z,6.17
2022-10-27T01:45:31.675Z,11.07
2022-10-27T01:47:59.641Z,6.70
2022-10-27T01:50:45.259Z,8.37
2022-10-27T01:53:25.190Z,9.57
2022-10-27T01:56:03.922Z,7.93
2022-10-27T01:59:10.099Z,7.33
2022-10-27T02:02:04.922Z,6.83
2022-10-27T02:04:58.235Z,6.00
2022-10-27T02:07:49.735Z,8.47
2022-10-27T02:10:22.288Z,6.70
2022-10-27T02:12:53.827Z,6.33
2022-10-27T02:15:48.510Z,4.00
2022-10-27T02:18:25.763Z,6.40
2022-10-27T02:20:58.129Z,6.67
2022-10-27T02:23:28.619Z,9.53
2022-10-27T02:26:22.800Z,7.00
2022-10-27T02:28:59.429Z,5.77
2022-10-27T02:31:47.483Z,9.57
2022-10-27T02:34:15.556Z,7.70
2022-10-27T02:36:42.360Z,5.53
2022-10-27T02:39:09.150Z,4.30
2022-10-27T02:41:35.928Z,5.73
2022-10-27T02:44:02.791Z,6.80
2022-10-27T02:46:32.520Z,8.70
2022-10-27T02:48:59.355Z,6.63
2022-10-27T02:51:26.030Z,4.77
2022-10-27T02:53:52.706Z,6.13
2022-10-27T02:56:19.503Z,8.17
2022-10-27T02:58:46.340Z,6.93
2022-10-27T03:01:13.069Z,6.33
2022-10-27T03:03:41.751Z,7.97
2022-10-27T03:06:08.684Z,8.47
2022-10-27T03:08:35.518Z,9.10
2022-10-27T03:11:02.427Z,8.60
2022-10-27T03:13:29.103Z,7.80
2022-10-27T03:15:55.782Z,5.77
2022-10-27T03:18:22.572Z,8.13
2022-10-27T03:20:49.254Z,9.90
2022-10-27T03:23:19.204Z,6.07
2022-10-27T03:25:52.151Z,9.83
2022-10-27T03:28:19.347Z,8.03
2022-10-27T03:30:46.085Z,5.97
2022-10-27T03:33:12.824Z,8.17
2022-10-27T03:35:39.568Z,5.97
2022-10-27T03:38:06.371Z,7.27
2022-10-27T03:40:33.073Z,9.77
2022-10-27T03:43:02.590Z,8.63
2022-10-27T03:45:29.407Z,6.70
2022-10-27T03:48:04.474Z,11.73
2022-10-27T03:50:31.881Z,7.80
2022-10-27T03:52:59.045Z,5.53
2022-10-27T03:55:26.152Z,6.40
2022-10-27T03:57:53.334Z,7.93
2022-10-27T04:00:20.452Z,7.97
2022-10-27T04:02:47.255Z,5.23
2022-10-27T04:05:14.080Z,6.67
2022-10-27T04:07:46.222Z,9.00
2022-10-27T04:10:14.550Z,6.03
2022-10-27T04:12:55.755Z,6.73
2022-10-27T04:15:26.809Z,6.50
2022-10-27T04:17:55.283Z,8.00
2022-10-27T04:20:22.851Z,7.80
2022-10-27T04:22:50.027Z,6.23
2022-10-27T04:25:17.155Z,8.63
2022-10-27T04:27:44.105Z,7.50
2022-10-27T04:30:11.383Z,7.03
2022-10-27T04:32:38.264Z,9.23
2022-10-27T04:35:06.795Z,7.23
2022-10-27T04:37:34.278Z,5.47
2022-10-27T04:40:01.429Z,9.20
2022-10-27T04:42:28.271Z,7.20
2022-10-27T04:44:55.068Z,8.60
2022-10-27T04:47:21.744Z,7.77
2022-10-27T04:49:48.465Z,7.33
2022-10-27T04:52:15.403Z,6.83
2022-10-27T04:54:42.102Z,5.50
2022-10-27T04:57:08.863Z,8.03
2022-10-27T04:59:38.479Z,8.60
2022-10-27T05:02:05.202Z,9.47
2022-10-27T05:04:32.035Z,7.00
2022-10-27T05:06:58.905Z,7.33
2022-10-27T05:09:25.575Z,5.90
2022-10-27T05:11:52.368Z,7.67
2022-10-27T05:14:19.144Z,8.10
2022-10-27T05:16:45.883Z,9.23
2022-10-27T05:19:13.837Z,7.70
2022-10-27T05:21:40.563Z,8.67
2022-10-27T05:24:07.613Z,10.33
2022-10-27T05:26:37.139Z,10.50
2022-10-27T05:29:04.920Z,8.93
2022-10-27T05:31:31.601Z,11.00
2022-10-27T05:36:29.987Z,8.17
2022-10-27T05:38:57.095Z,6.83
2022-10-27T05:41:23.756Z,7.40
2022-10-27T05:43:50.530Z,7.70
2022-10-27T05:46:20.042Z,9.50
2022-10-27T05:48:46.806Z,9.93
2022-10-27T05:51:14.761Z,7.00
2022-10-27T05:53:43.610Z,8.20
2022-10-27T05:56:10.459Z,9.60
2022-10-27T05:58:37.221Z,10.33
2022-10-27T06:01:04.001Z,9.07
2022-10-27T06:03:30.821Z,5.97
2022-10-27T06:05:58.274Z,7.07
2022-10-27T06:08:25.102Z,10.83
2022-10-27T06:10:51.809Z,9.40
2022-10-27T06:13:19.203Z,9.37
2022-10-27T06:15:46.083Z,10.30
2022-10-27T06:18:13.424Z,12.43
2022-10-27T06:20:41.647Z,11.07
2022-10-27T06:23:08.581Z,8.47
2022-10-27T06:25:38.720Z,8.57
2022-10-27T06:28:05.542Z,8.60
2022-10-27T06:30:32.235Z,10.87
2022-10-27T06:32:59.017Z,8.23
2022-10-27T06:35:25.693Z,12.10
2022-10-27T06:37:52.851Z,12.03
2022-10-27T06:40:20.617Z,10.17
2022-10-27T06:43:05.718Z,6.97
2022-10-27T06:45:33.201Z,7.23
2022-10-27T06:48:02.228Z,9.30
2022-10-27T06:50:29.497Z,5.23
2022-10-27T06:52:59.346Z,8.37
2022-10-27T06:55:26.093Z,9.17
2022-10-27T06:57:53.282Z,9.33
2022-10-27T07:00:21.070Z,5.43
2022-10-27T07:02:48.469Z,8.00
2022-10-27T07:05:15.332Z,10.27
2022-10-27T07:07:53.429Z,6.57
2022-10-27T07:10:21.227Z,7.77
2022-10-27T07:12:57.420Z,8.37
2022-10-27T07:15:26.334Z,5.47
2022-10-27T07:18:01.730Z,7.33
2022-10-27T07:20:30.347Z,8.07
2022-10-27T07:22:58.179Z,8.13
2022-10-27T07:25:27.211Z,5.63
2022-10-27T07:27:58.293Z,8.00
2022-10-27T07:30:31.017Z,6.57
2022-10-27T07:32:58.303Z,12.93
2022-10-27T07:35:25.602Z,10.20
2022-10-27T07:37:55.541Z,7.87
2022-10-27T07:40:27.353Z,6.13
2022-10-27T07:42:59.986Z,4.00
2022-10-27T07:45:30.061Z,9.50
2022-10-27T07:47:58.464Z,8.83
2022-10-27T07:50:33.182Z,7.40
2022-10-27T07:53:01.079Z,4.93
2022-10-27T07:55:29.093Z,7.13
2022-10-27T07:58:00.569Z,6.67
2022-10-27T08:00:28.820Z,5.83
2022-10-27T08:02:56.220Z,8.50
2022-10-27T08:05:23.227Z,9.93
2022-10-27T08:07:50.287Z,7.23
2022-10-27T08:10:17.478Z,6.73
2022-10-27T08:12:47.223Z,6.57
2022-10-27T08:15:14.017Z,8.90
2022-10-27T08:17:40.863Z,4.83
2022-10-27T08:20:09.402Z,6.80
2022-10-27T08:22:36.392Z,5.97
2022-10-27T08:25:05.966Z,5.37
2022-10-27T08:27:35.803Z,6.67
2022-10-27T08:30:02.636Z,5.57
2022-10-27T08:32:29.438Z,6.93
2022-10-27T08:34:56.534Z,8.13
2022-10-27T08:37:23.254Z,6.93
2022-10-27T08:39:49.919Z,8.50
2022-10-27T08:43:01.488Z,8.63
2022-10-27T08:45:34.800Z,6.73
2022-10-27T08:48:02.036Z,5.73
2022-10-27T08:50:40.167Z,5.77
2022-10-27T08:53:13.507Z,6.20
2022-10-27T08:55:53.246Z,8.73
2022-10-27T08:58:39.254Z,6.70
2022-10-27T09:01:39.410Z,4.57
2022-10-27T09:04:12.245Z,6.83
2022-10-27T09:06:51.191Z,6.23
2022-10-27T09:09:33.088Z,4.13
2022-10-27T09:12:16.204Z,6.93
2022-10-27T09:14:49.032Z,7.43
2022-10-27T09:17:28.073Z,5.70
2022-10-27T09:20:01.630Z,3.97
2022-10-27T09:22:33.416Z,3.17
2022-10-27T09:25:05.118Z,2.90
2022-10-27T09:27:33.358Z,4.70
2022-10-27T09:30:10.508Z,6.13
2022-10-27T09:32:42.771Z,6.30
2022-10-27T09:35:21.675Z,5.67
2022-10-27T09:37:48.691Z,6.17
2022-10-27T09:40:21.131Z,4.30
2022-10-27T09:42:52.193Z,7.20
2022-10-27T09:45:27.595Z,2.73
2022-10-27T09:48:03.054Z,4.73
2022-10-27T09:50:40.041Z,3.13
2022-10-27T09:53:37.358Z,5.90
2022-10-27T09:56:05.167Z,4.80
2022-10-27T09:58:32.797Z,5.83
2022-10-27T10:01:01.582Z,3.23
2022-10-27T10:03:28.510Z,3.13
2022-10-27T10:06:05.481Z,2.50
2022-10-27T10:08:35.322Z,5.00
2022-10-27T10:11:05.630Z,3.87
2022-10-27T10:13:37.455Z,2.90
2022-10-27T10:16:09.913Z,4.77
2022-10-27T10:18:38.893Z,3.87
2022-10-27T10:21:09.244Z,2.80
2022-10-27T10:24:00.030Z,3.00
2022-10-27T10:26:29.566Z,3.63
2022-10-27T10:29:07.533Z,2.67
2022-10-27T10:31:34.424Z,4.03
2022-10-27T10:34:08.809Z,4.33
2022-10-27T10:36:38.126Z,2.37
2022-10-27T10:39:24.875Z,4.07
2022-10-27T10:42:10.079Z,3.13
2022-10-27T10:44:40.173Z,2.90
2022-10-27T10:47:25.888Z,4.80
2022-10-27T10:49:59.090Z,4.30
2022-10-27T10:52:32.745Z,5.40
2022-10-27T10:55:11.206Z,4.50
2022-10-27T10:57:46.071Z,5.03
2022-10-27T11:00:17.875Z,4.77
2022-10-27T11:03:02.838Z,4.20
2022-10-27T11:05:33.173Z,7.17
2022-10-27T11:08:00.722Z,4.40
2022-10-27T11:10:33.344Z,5.67
2022-10-27T11:13:15.424Z,3.60
2022-10-27T11:16:01.010Z,2.50
2022-10-27T11:18:40.316Z,2.87
2022-10-27T11:21:38.950Z,3.40
2022-10-27T11:24:08.920Z,8.43
2022-10-27T11:26:38.826Z,3.27
2022-10-27T11:29:23.916Z,3.53
2022-10-27T11:32:18.562Z,3.70
2022-10-27T11:35:03.589Z,2.77
2022-10-27T11:37:41.084Z,5.83
2022-10-27T11:40:27.149Z,5.33
2022-10-27T11:43:09.328Z,3.63
2022-10-27T11:45:53.605Z,3.50
2022-10-27T11:48:24.855Z,3.83
2022-10-27T11:51:07.146Z,3.00
2022-10-27T11:53:39.028Z,2.57
2022-10-27T11:56:26.948Z,3.20
2022-10-27T11:59:04.643Z,4.60
2022-10-27T12:01:41.832Z,3.90
2022-10-27T12:04:27.777Z,4.00
2022-10-27T12:07:11.053Z,4.87
2022-10-27T12:09:52.841Z,5.30
2022-10-27T12:12:22.659Z,4.00
2022-10-27T12:14:49.394Z,3.80
2022-10-27T12:17:24.066Z,5.67
2022-10-27T12:19:56.555Z,4.30
2022-10-27T12:22:27.612Z,3.53
2022-10-27T12:25:14.607Z,6.20
2022-10-27T12:27:47.389Z,3.57
2022-10-27T12:30:18.587Z,3.43
2022-10-27T12:33:09.417Z,5.77
2022-10-27T12:35:56.774Z,4.13
2022-10-27T12:38:34.504Z,4.37
2022-10-27T12:41:01.190Z,4.13
2022-10-27T12:43:37.493Z,7.47
2022-10-27T12:46:23.444Z,5.93
2022-10-27T12:49:04.768Z,4.33
2022-10-27T12:51:46.512Z,3.17
2022-10-27T12:54:43.232Z,4.53
2022-10-27T12:57:42.507Z,3.57
2022-10-27T13:00:20.306Z,4.40
2022-10-27T13:03:26.677Z,4.43
2022-10-27T13:06:08.378Z,5.23
2022-10-27T13:11:22.075Z,4.60
2022-10-27T13:14:01.843Z,3.67
2022-10-27T13:16:53.001Z,4.03
2022-10-27T13:19:38.082Z,4.63
2022-10-27T13:22:21.376Z,4.07
2022-10-27T13:24:54.233Z,3.90
2022-10-27T13:27:45.556Z,6.10
2022-10-27T13:30:20.977Z,5.53
2022-10-27T13:32:47.610Z,4.93
2022-10-27T13:35:14.329Z,5.47
2022-10-27T13:37:49.949Z,5.50
2022-10-27T13:40:19.614Z,4.10
2022-10-27T13:42:47.294Z,4.87
2022-10-27T13:45:35.195Z,3.53
2022-10-27T13:48:08.032Z,5.37
2022-10-27T13:50:48.434Z,6.13
2022-10-27T13:53:15.311Z,6.60
2022-10-27T13:56:00.096Z,4.07
2022-10-27T13:58:51.434Z,6.60
2022-10-27T14:01:43.097Z,5.50
2022-10-27T14:04:22.108Z,4.40
2022-10-27T14:09:45.361Z,4.90
2022-10-27T14:12:38.041Z,4.47
2022-10-27T14:15:32.512Z,4.30
2022-10-27T14:17:59.867Z,5.13
2022-10-27T14:20:37.861Z,5.43
2022-10-27T14:23:07.607Z,4.37
2022-10-27T14:25:34.387Z,3.17
2022-10-27T14:28:20.895Z,5.77
2022-10-27T14:31:11.716Z,4.77
2022-10-27T14:33:38.578Z,5.87
2022-10-27T14:36:26.306Z,5.07
2022-10-27T14:39:13.418Z,4.40
2022-10-27T14:41:49.349Z,6.27
2022-10-27T14:44:28.496Z,4.43
2022-10-27T14:47:00.091Z,6.27
2022-10-27T14:49:33.763Z,9.70
2022-10-27T14:52:06.389Z,4.40
2022-10-27T14:54:33.875Z,2.40
2022-10-27T14:57:29.690Z,6.13
2022-10-27T14:59:59.313Z,5.43
2022-10-27T15:02:27.056Z,4.57
2022-10-27T15:04:54.099Z,8.53
2022-10-27T15:07:22.039Z,4.67
2022-10-27T15:09:52.938Z,7.07
2022-10-27T15:12:27.558Z,4.53
2022-10-27T15:14:58.619Z,6.63
2022-10-27T15:17:37.031Z,4.97
2022-10-27T15:20:06.828Z,6.20
2022-10-27T15:22:35.543Z,9.30
2022-10-27T15:25:04.064Z,5.50
2022-10-27T15:27:33.604Z,6.67
2022-10-27T15:30:02.093Z,7.60
2022-10-27T15:32:58.632Z,6.67
2022-10-27T15:35:44.623Z,6.77
2022-10-27T15:38:38.209Z,7.43
2022-10-27T15:41:26.834Z,6.43
2022-10-27T15:44:03.489Z,5.30
2022-10-27T15:46:36.692Z,7.37
2022-10-27T15:49:03.590Z,7.67
2022-10-27T15:51:45.525Z,8.90
2022-10-27T15:54:48.765Z,8.97
2022-10-27T15:57:36.339Z,7.07
2022-10-27T16:00:22.180Z,4.43
2022-10-27T16:02:58.387Z,5.50
2022-10-27T16:05:31.047Z,8.20
2022-10-27T16:08:20.777Z,7.00
2022-10-27T16:10:52.448Z,7.37
2022-10-27T16:13:21.684Z,8.80
2022-10-27T16:15:49.465Z,6.40
2022-10-27T16:18:23.083Z,10.20
2022-10-27T16:20:49.907Z,8.40
2022-10-27T16:23:17.153Z,9.17
2022-10-27T16:25:45.961Z,8.13
2022-10-27T16:28:25.702Z,5.63
2022-10-27T16:30:53.137Z,7.70
2022-10-27T16:33:24.332Z,6.30
2022-10-27T16:35:51.243Z,10.23
2022-10-27T16:38:18.102Z,7.70
2022-10-27T16:40:47.766Z,7.17
2022-10-27T16:43:24.771Z,7.87
2022-10-27T16:45:51.472Z,9.03
2022-10-27T16:48:18.209Z,10.43
2022-10-27T16:50:46.039Z,8.77
2022-10-27T16:53:13.896Z,8.23
2022-10-27T16:55:43.754Z,7.23
2022-10-27T16:58:10.568Z,9.10
2022-10-27T17:00:39.757Z,11.57
2022-10-27T17:03:06.419Z,7.20
2022-10-27T17:05:35.535Z,8.60
2022-10-27T17:08:05.301Z,9.63
2022-10-27T17:10:32.086Z,8.47
2022-10-27T17:12:59.529Z,12.23
2022-10-27T17:15:26.291Z,10.77
2022-10-27T17:17:53.101Z,11.53
2022-10-27T17:20:22.480Z,6.73
2022-10-27T17:22:49.338Z,10.73
2022-10-27T17:25:16.341Z,7.87
2022-10-27T17:27:43.055Z,8.93
2022-10-27T17:30:10.358Z,9.20
2022-10-27T17:32:37.186Z,11.13
2022-10-27T17:35:04.434Z,7.10
2022-10-27T17:37:31.548Z,9.87
2022-10-27T17:39:58.663Z,9.40
2022-10-27T17:42:25.543Z,7.83
2022-10-27T17:44:52.516Z,14.20
2022-10-27T17:47:19.265Z,8.77
2022-10-27T17:49:46.021Z,10.03
2022-10-27T17:52:12.698Z,7.80
2022-10-27T17:54:41.663Z,8.17
2022-10-27T17:57:09.935Z,9.67
2022-10-27T17:59:36.773Z,9.60
2022-10-27T18:02:06.230Z,10.27
2022-10-27T18:04:35.204Z,15.80
2022-10-27T18:07:02.572Z,11.73
2022-10-27T18:09:29.244Z,6.73
2022-10-27T18:11:55.946Z,7.47
2022-10-27T18:14:24.238Z,13.23
2022-10-27T18:16:51.033Z,12.77
2022-10-27T18:19:17.752Z,10.73
2022-10-27T18:21:46.491Z,12.60
2022-10-27T18:24:14.905Z,11.07
2022-10-27T18:26:45.658Z,17.03
2022-10-27T18:29:14.049Z,10.77
2022-10-27T18:31:41.404Z,14.33
2022-10-27T18:34:16.135Z,13.33
2022-10-27T18:36:44.716Z,11.43
2022-10-27T18:39:19.475Z,13.30
2022-10-27T18:41:49.186Z,11.00
2022-10-27T18:44:16.307Z,9.83
2022-10-27T18:46:43.647Z,11.73
2022-10-27T18:49:15.942Z,11.23
2022-10-27T18:51:47.441Z,8.97
2022-10-27T18:54:17.131Z,8.70
2022-10-27T18:56:43.884Z,10.90
2022-10-27T18:59:14.049Z,11.33
2022-10-27T19:01:43.408Z,16.43
2022-10-27T19:04:10.345Z,11.67
2022-10-27T19:06:38.030Z,9.30
2022-10-27T19:09:05.471Z,8.50
2022-10-27T19:11:35.066Z,10.83
2022-10-27T19:14:02.884Z,10.60
2022-10-27T19:16:32.756Z,10.17
2022-10-27T19:19:01.039Z,10.13
2022-10-27T19:21:29.034Z,11.23
2022-10-27T19:23:58.206Z,9.07
2022-10-27T19:26:27.422Z,8.23
2022-10-27T19:28:55.546Z,13.60
2022-10-27T19:31:24.897Z,10.67
2022-10-27T19:33:55.262Z,14.20
2022-10-27T19:36:28.840Z,10.67
2022-10-27T19:38:57.237Z,9.03
2022-10-27T19:41:27.003Z,14.30
2022-10-27T19:43:55.814Z,10.87
2022-10-27T19:46:24.162Z,10.80
2022-10-27T19:48:52.469Z,11.97
2022-10-27T19:51:22.877Z,12.63
2022-10-27T19:53:50.046Z,13.03
2022-10-27T19:56:20.085Z,15.17
2022-10-27T19:58:58.294Z,11.20
2022-10-27T20:01:27.158Z,11.33
2022-10-27T20:03:54.041Z,11.17
2022-10-27T20:06:21.113Z,10.83
2022-10-27T20:08:55.002Z,12.63
2022-10-27T20:11:25.049Z,14.23
2022-10-27T20:13:54.886Z,11.77
2022-10-27T20:16:23.877Z,15.00
2022-10-27T20:18:50.721Z,14.53
2022-10-27T20:21:17.533Z,11.00
2022-10-27T20:23:45.280Z,15.23
2022-10-27T20:26:30.575Z,11.50
2022-10-27T20:29:00.205Z,13.97
2022-10-27T20:31:27.156Z,15.73
2022-10-27T20:33:54.190Z,11.73
2022-10-27T20:36:21.660Z,11.70
2022-10-27T20:38:52.785Z,15.47
2022-10-27T20:41:21.859Z,13.63
2022-10-27T20:43:51.866Z,16.20
2022-10-27T20:46:18.549Z,16.50
2022-10-27T20:48:51.573Z,14.30
2022-10-27T20:51:18.720Z,13.47
2022-10-27T20:53:45.547Z,12.80
2022-10-27T20:56:37.410Z,17.20
2022-10-27T20:59:05.535Z,14.17
2022-10-27T21:01:42.882Z,14.77
2022-10-27T21:04:10.835Z,12.37
2022-10-27T21:06:42.529Z,14.17
2022-10-27T21:09:12.527Z,11.10
2022-10-27T21:11:40.348Z,15.60
2022-10-27T21:14:07.906Z,12.93
2022-10-27T21:16:34.761Z,12.10
2022-10-27T21:19:04.020Z,15.03
2022-10-27T21:21:31.841Z,13.30
2022-10-27T21:24:00.030Z,11.83
2022-10-27T21:26:27.149Z,12.73
2022-10-27T21:28:55.976Z,10.90
2022-10-27T21:31:24.766Z,12.43
2022-10-27T21:33:51.917Z,16.87
2022-10-27T21:36:18.954Z,10.97
2022-10-27T21:38:47.626Z,14.07
2022-10-27T21:41:17.030Z,12.30
2022-10-27T21:43:45.542Z,15.40
2022-10-27T21:46:14.879Z,11.60
2022-10-27T21:48:41.976Z,15.33
2022-10-27T21:51:11.483Z,13.57
2022-10-27T21:53:38.159Z,12.87
2022-10-27T21:56:07.932Z,13.97
2022-10-27T21:58:41.873Z,12.03
2022-10-27T22:01:17.808Z,15.67
2022-10-27T22:03:49.327Z,13.77
2022-10-27T22:06:18.367Z,13.50
2022-10-27T22:08:46.036Z,17.53
2022-10-27T22:11:16.625Z,13.07
2022-10-27T22:13:43.872Z,14.60
2022-10-27T22:16:13.276Z,16.40
2022-10-27T22:18:43.517Z,16.17
2022-10-27T22:21:12.903Z,14.63
2022-10-27T22:23:39.831Z,14.13
2022-10-27T22:26:12.494Z,11.93
2022-10-27T22:28:40.135Z,14.93
2022-10-27T22:31:08.636Z,11.60
2022-10-27T22:33:35.915Z,18.10
2022-10-27T22:36:08.558Z,13.07
2022-10-27T22:38:35.630Z,16.47
2022-10-27T22:41:10.459Z,13.47
2022-10-27T22:43:37.674Z,15.73
2022-10-27T22:46:05.247Z,12.80
2022-10-27T22:48:36.815Z,14.83
2022-10-27T22:51:09.586Z,15.33
2022-10-27T22:53:37.907Z,14.33
2022-10-27T22:56:21.500Z,15.53
2022-10-27T22:58:57.820Z,15.77
2022-10-27T23:01:28.939Z,15.50
2022-10-27T23:03:58.453Z,16.60
2022-10-27T23:06:27.545Z,18.70
2022-10-27T23:09:03.454Z,14.17
2022-10-27T23:11:33.043Z,14.63
2022-10-27T23:14:00.083Z,15.50
2022-10-27T23:16:29.806Z,13.77
2022-10-27T23:18:57.527Z,16.40
2022-10-27T23:21:25.130Z,39.73
2022-10-27T23:23:52.281Z,16.33
2022-10-27T23:26:21.100Z,18.30
2022-10-27T23:28:49.796Z,15.93
2022-10-27T23:31:17.222Z,16.67
2022-10-27T23:33:43.940Z,18.00
2022-10-27T23:36:12.212Z,16.03
2022-10-27T23:38:39.498Z,15.27
2022-10-27T23:41:06.355Z,15.43
2022-10-27T23:43:33.110Z,15.87
2022-10-27T23:46:02.463Z,15.43
2022-10-27T23:48:30.336Z,21.13
2022-10-27T23:51:00.593Z,19.03
2022-10-27T23:53:28.867Z,19.63
2022-10-27T23:56:00.691Z,17.80
2022-10-27T23:58:33.146Z,17.23
